createdAt,value
2023-05-07T00:02:24.072Z,18.96
2023-05-07T00:06:25.236Z,18.66
2023-05-07T00:10:26.636Z,18.77
2023-05-07T00:14:26.933Z,18.84
2023-05-07T00:18:29.729Z,18.72
2023-05-07T00:22:31.331Z,18.60
2023-05-07T00:26:31.584Z,18.53
2023-05-07T00:30:32.006Z,18.55
2023-05-07T00:34:35.619Z,18.42
2023-05-07T00:38:36.075Z,18.02
2023-05-07T00:42:36.306Z,17.92
2023-05-07T00:46:38.040Z,18.07
2023-05-07T00:50:41.158Z,18.05
2023-05-07T00:54:43.887Z,18.20
2023-05-07T00:58:44.882Z,18.16
2023-05-07T01:02:46.485Z,18.16
2023-05-07T01:06:50.583Z,18.10
2023-05-07T01:10:51.450Z,18.31
2023-05-07T01:14:52.217Z,18.24
2023-05-07T01:18:53.358Z,18.13
2023-05-07T01:22:57.185Z,18.27
2023-05-07T01:26:57.466Z,18.27
2023-05-07T01:31:04.501Z,18.36
2023-05-07T01:35:09.204Z,18.32
2023-05-07T01:39:13.968Z,18.29
2023-05-07T01:43:14.966Z,18.23
2023-05-07T01:47:17.676Z,18.11
2023-05-07T01:51:17.970Z,18.14
2023-05-07T01:55:20.945Z,18.24
2023-05-07T01:59:21.434Z,18.39
2023-05-07T02:03:21.999Z,18.38
2023-05-07T02:07:31.101Z,18.49
2023-05-07T02:11:34.729Z,18.30
2023-05-07T02:15:35.247Z,18.37
2023-05-07T02:19:37.123Z,18.61
2023-05-07T02:23:37.381Z,18.51
2023-05-07T02:27:40.253Z,18.42
2023-05-07T02:31:40.519Z,18.76
2023-05-07T02:35:40.904Z,18.77
2023-05-07T02:39:42.183Z,18.75
2023-05-07T02:43:45.151Z,18.75
2023-05-07T02:47:46.485Z,18.89
2023-05-07T02:51:46.813Z,18.81
2023-05-07T02:55:53.437Z,18.87
2023-05-07T02:59:56.378Z,18.74
2023-05-07T03:03:56.920Z,18.85
2023-05-07T03:07:57.342Z,18.80
2023-05-07T03:11:57.668Z,18.65
2023-05-07T03:16:03.512Z,18.34
2023-05-07T03:20:04.163Z,18.35
2023-05-07T03:24:06.226Z,18.18
2023-05-07T03:28:06.904Z,18.02
2023-05-07T03:32:30.352Z,17.99
2023-05-07T03:36:30.872Z,18.03
2023-05-07T03:40:31.341Z,18.05
2023-05-07T03:44:32.008Z,17.96
2023-05-07T03:48:36.785Z,18.11
2023-05-07T03:52:37.397Z,17.96
2023-05-07T03:56:39.275Z,17.91
2023-05-07T04:00:41.729Z,17.92
2023-05-07T04:05:11.526Z,18.09
2023-05-07T04:09:13.642Z,18.14
2023-05-07T04:13:14.185Z,18.21
2023-05-07T04:17:15.801Z,18.20
2023-05-07T04:21:23.695Z,18.30
2023-05-07T04:25:27.939Z,18.01
2023-05-07T04:29:34.848Z,18.00
2023-05-07T04:33:36.902Z,18.05
2023-05-07T04:37:41.266Z,17.99
2023-05-07T04:41:42.165Z,17.96
2023-05-07T04:45:43.423Z,17.99
2023-05-07T04:49:43.789Z,17.98
2023-05-07T04:53:48.241Z,18.58
2023-05-07T04:57:48.726Z,18.61
2023-05-07T05:01:50.239Z,18.52
2023-05-07T05:05:53.057Z,18.51
2023-05-07T05:09:58.751Z,18.80
2023-05-07T05:13:59.688Z,18.80
2023-05-07T05:18:00.196Z,18.73
2023-05-07T05:22:02.238Z,19.12
2023-05-07T05:26:06.294Z,19.18
2023-05-07T05:30:10.159Z,19.18
2023-05-07T05:34:11.613Z,19.38
2023-05-07T05:38:12.494Z,19.63
2023-05-07T05:42:16.983Z,19.70
2023-05-07T05:46:18.936Z,19.83
2023-05-07T05:50:20.891Z,19.99
2023-05-07T05:54:24.008Z,20.29
2023-05-07T05:58:28.082Z,20.38
2023-05-07T06:02:34.241Z,20.13
2023-05-07T06:06:35.818Z,20.48
2023-05-07T06:10:37.469Z,20.71
2023-05-07T06:14:42.093Z,21.28
2023-05-07T06:18:42.571Z,21.20
2023-05-07T06:22:43.952Z,21.37
2023-05-07T06:26:46.010Z,21.48
2023-05-07T06:30:51.079Z,21.29
2023-05-07T06:34:52.061Z,21.81
2023-05-07T06:38:53.019Z,22.04
2023-05-07T06:42:53.564Z,22.13
2023-05-07T06:47:15.710Z,22.03
2023-05-07T06:51:17.704Z,22.24
2023-05-07T06:55:18.283Z,22.77
2023-05-07T06:59:20.508Z,22.85
2023-05-07T07:03:24.487Z,23.03
2023-05-07T07:07:25.102Z,24.00
2023-05-07T07:11:25.499Z,24.37
2023-05-07T07:15:26.328Z,25.13
2023-05-07T07:19:31.670Z,25.18
2023-05-07T07:23:33.016Z,25.87
2023-05-07T07:27:33.553Z,25.84
2023-05-07T07:31:34.958Z,24.53
2023-05-07T07:35:38.908Z,23.94
2023-05-07T07:39:42.363Z,24.26
2023-05-07T07:43:43.474Z,23.90
2023-05-07T07:47:44.967Z,24.45
2023-05-07T07:51:49.808Z,24.94
2023-05-07T07:55:50.868Z,26.25
2023-05-07T07:59:54.633Z,26.72
2023-05-07T08:03:56.220Z,26.98
2023-05-07T08:12:43.752Z,26.90
2023-05-07T08:16:44.606Z,26.70
2023-05-07T08:20:45.188Z,26.95
2023-05-07T08:24:49.637Z,27.69
2023-05-07T08:28:52.737Z,28.61
2023-05-07T08:32:53.233Z,28.46
2023-05-07T08:36:53.674Z,29.10
2023-05-07T08:40:57.277Z,29.48
2023-05-07T08:45:06.778Z,30.98
2023-05-07T08:49:09.218Z,30.65
2023-05-07T08:53:10.065Z,30.22
2023-05-07T09:11:18.915Z,30.97
2023-05-07T09:15:39.745Z,30.53
2023-05-07T09:20:01.051Z,29.63
2023-05-07T09:24:21.780Z,30.05
2023-05-07T09:28:47.691Z,30.98
2023-05-07T09:32:52.190Z,33.04
2023-05-07T09:36:55.656Z,33.04
2023-05-07T09:41:07.905Z,31.64
2023-05-07T09:45:33.416Z,31.02
2023-05-07T09:49:38.218Z,30.94
2023-05-07T09:53:45.001Z,30.92
2023-05-07T09:57:48.828Z,31.31
2023-05-07T10:01:53.582Z,31.32
2023-05-07T10:05:55.584Z,32.20
2023-05-07T10:10:02.529Z,32.24
2023-05-07T10:14:11.913Z,32.68
2023-05-07T10:18:19.322Z,33.65
2023-05-07T10:22:24.211Z,34.81
2023-05-07T10:26:31.291Z,35.10
2023-05-07T10:30:50.754Z,35.34
2023-05-07T10:34:59.788Z,35.81
2023-05-07T10:39:00.367Z,34.96
2023-05-07T10:43:13.695Z,35.74
2023-05-07T10:47:21.187Z,37.50
2023-05-07T10:51:28.083Z,37.16
2023-05-07T10:55:37.117Z,38.07
2023-05-07T10:59:49.404Z,36.13
2023-05-07T11:04:25.851Z,36.92
2023-05-07T11:09:02.446Z,37.72
2023-05-07T11:13:49.237Z,37.56
2023-05-07T11:18:21.444Z,39.44
2023-05-07T11:22:43.345Z,36.33
2023-05-07T11:27:04.150Z,36.16
2023-05-07T11:31:06.362Z,35.62
2023-05-07T11:35:07.552Z,35.43
2023-05-07T11:39:08.396Z,37.06
2023-05-07T11:43:17.642Z,35.18
2023-05-07T11:47:22.862Z,32.69
2023-05-07T11:51:24.866Z,31.29
2023-05-07T11:55:26.017Z,30.43
2023-05-07T11:59:28.938Z,31.38
2023-05-07T12:03:32.104Z,33.17
2023-05-07T12:07:38.107Z,33.75
2023-05-07T12:11:41.017Z,36.82
2023-05-07T12:15:43.778Z,35.88
2023-05-07T12:19:47.391Z,33.99
2023-05-07T12:23:49.081Z,35.73
2023-05-07T12:27:56.329Z,36.72
2023-05-07T12:32:00.529Z,36.47
2023-05-07T12:36:01.986Z,36.47
2023-05-07T12:40:10.191Z,35.22
2023-05-07T12:44:10.712Z,34.41
2023-05-07T12:48:14.894Z,34.04
2023-05-07T12:52:15.843Z,33.24
2023-05-07T12:56:16.182Z,33.69
2023-05-07T13:00:18.920Z,35.72
2023-05-07T13:04:22.625Z,37.26
2023-05-07T13:08:34.913Z,36.41
2023-05-07T13:12:35.385Z,36.81
2023-05-07T13:16:35.638Z,36.83
2023-05-07T13:20:38.478Z,36.97
2023-05-07T13:24:38.681Z,35.27
2023-05-07T13:28:38.949Z,35.25
2023-05-07T13:32:39.865Z,36.91
2023-05-07T13:36:43.131Z,38.16
2023-05-07T13:40:43.426Z,38.27
2023-05-07T13:44:44.985Z,37.75
2023-05-07T13:48:45.182Z,38.70
2023-05-07T13:52:51.988Z,38.04
2023-05-07T13:56:52.332Z,37.74
2023-05-07T14:00:52.756Z,37.60
2023-05-07T14:04:55.213Z,36.89
2023-05-07T14:08:59.405Z,37.91
2023-05-07T14:12:59.793Z,38.74
2023-05-07T14:17:00.201Z,38.90
2023-05-07T14:21:01.000Z,38.61
2023-05-07T14:25:07.175Z,38.00
2023-05-07T14:29:08.040Z,35.66
2023-05-07T14:33:08.290Z,34.69
2023-05-07T14:37:08.645Z,33.04
2023-05-07T14:41:11.423Z,34.83
2023-05-07T14:45:14.139Z,37.03
2023-05-07T14:49:18.214Z,37.65
2023-05-07T14:53:18.502Z,37.48
2023-05-07T14:57:21.316Z,38.03
2023-05-07T15:01:21.653Z,38.00
2023-05-07T15:05:22.491Z,35.61
2023-05-07T15:09:22.709Z,35.21
2023-05-07T15:13:26.095Z,35.48
2023-05-07T15:17:27.392Z,33.49
2023-05-07T15:21:28.083Z,32.77
2023-05-07T15:25:28.487Z,32.66
2023-05-07T15:29:31.589Z,31.98
2023-05-07T15:33:33.249Z,31.86
2023-05-07T15:37:34.945Z,31.99
2023-05-07T15:41:36.762Z,32.94
2023-05-07T15:45:44.096Z,32.76
2023-05-07T15:49:49.351Z,32.58
2023-05-07T15:53:50.611Z,32.53
2023-05-07T15:57:50.838Z,33.54
2023-05-07T16:01:53.693Z,33.24
2023-05-07T16:05:54.082Z,32.78
2023-05-07T16:09:54.269Z,32.49
2023-05-07T16:13:54.570Z,32.30
2023-05-07T16:17:58.443Z,31.04
2023-05-07T16:21:58.848Z,31.00
2023-05-07T16:25:59.197Z,30.10
2023-05-07T16:29:59.542Z,28.83
2023-05-07T16:34:03.290Z,28.76
2023-05-07T16:38:10.087Z,28.25
2023-05-07T16:42:14.201Z,27.94
2023-05-07T16:46:14.479Z,27.97
2023-05-07T16:50:18.197Z,27.91
2023-05-07T16:54:18.414Z,27.92
2023-05-07T16:58:19.257Z,28.05
2023-05-07T17:02:19.587Z,27.95
2023-05-07T17:06:25.250Z,27.60
2023-05-07T17:10:26.017Z,26.99
2023-05-07T17:14:30.422Z,26.61
2023-05-07T17:18:30.798Z,26.32
2023-05-07T17:22:36.870Z,26.52
2023-05-07T17:26:47.660Z,25.99
2023-05-07T17:30:48.365Z,25.98
2023-05-07T17:34:52.101Z,25.33
2023-05-07T17:38:55.175Z,25.69
2023-05-07T17:42:59.546Z,25.71
2023-05-07T17:47:00.673Z,25.76
2023-05-07T17:51:14.759Z,25.25
2023-05-07T17:55:26.107Z,25.31
2023-05-07T17:59:36.117Z,24.61
2023-05-07T18:03:39.285Z,24.75
2023-05-07T18:07:47.275Z,24.86
2023-05-07T18:11:56.626Z,24.39
2023-05-07T18:16:07.061Z,24.33
2023-05-07T18:20:11.917Z,24.21
2023-05-07T18:24:38.260Z,23.58
2023-05-07T18:28:50.317Z,23.75
2023-05-07T18:33:04.683Z,23.29
2023-05-07T18:37:07.160Z,24.09
2023-05-07T18:41:08.905Z,23.96
2023-05-07T18:45:20.015Z,23.79
2023-05-07T18:49:34.645Z,23.24
2023-05-07T18:53:37.332Z,23.18
2023-05-07T18:57:40.452Z,23.24
2023-05-07T19:01:44.178Z,23.15
2023-05-07T19:05:56.189Z,22.91
2023-05-07T19:10:04.970Z,22.67
2023-05-07T19:14:11.325Z,22.66
2023-05-07T19:18:21.906Z,22.33
2023-05-07T19:22:29.083Z,21.99
2023-05-07T19:26:30.912Z,22.51
2023-05-07T19:30:34.305Z,22.36
2023-05-07T19:34:37.960Z,22.27
2023-05-07T19:38:47.535Z,22.27
2023-05-07T19:42:57.666Z,22.57
2023-05-07T19:46:59.125Z,22.51
2023-05-07T19:51:06.336Z,22.40
2023-05-07T19:55:15.276Z,22.27
2023-05-07T19:59:16.563Z,22.48
2023-05-07T20:03:26.105Z,22.60
2023-05-07T20:07:33.014Z,22.34
2023-05-07T20:11:40.962Z,22.15
2023-05-07T20:15:41.556Z,21.77
2023-05-07T20:19:41.803Z,21.96
2023-05-07T20:23:44.831Z,21.54
2023-05-07T20:27:50.367Z,21.95
2023-05-07T20:31:50.911Z,21.72
2023-05-07T20:35:55.876Z,21.78
2023-05-07T20:39:59.005Z,21.71
2023-05-07T20:44:02.969Z,21.82
2023-05-07T20:48:03.946Z,21.83
2023-05-07T20:52:07.931Z,22.05
2023-05-07T20:56:11.510Z,21.26
2023-05-07T21:00:16.082Z,21.48
2023-05-07T21:04:16.496Z,21.62
2023-05-07T21:08:20.552Z,21.54
2023-05-07T21:12:25.157Z,21.50
2023-05-07T21:16:28.405Z,21.41
2023-05-07T21:20:28.868Z,21.14
2023-05-07T21:24:33.918Z,20.79
2023-05-07T21:28:37.064Z,21.36
2023-05-07T21:32:39.250Z,21.10
2023-05-07T21:36:42.203Z,21.00
2023-05-07T21:40:42.867Z,20.87
2023-05-07T21:44:45.608Z,20.78
2023-05-07T21:48:45.809Z,20.65
2023-05-07T21:52:46.860Z,20.60
2023-05-07T21:56:48.760Z,20.68
2023-05-07T22:00:53.167Z,20.78
2023-05-07T22:04:53.376Z,20.56
2023-05-07T22:08:54.033Z,19.83
2023-05-07T22:12:54.285Z,20.36
2023-05-07T22:16:57.116Z,20.24
2023-05-07T22:20:57.650Z,20.34
2023-05-07T22:24:57.839Z,20.39
2023-05-07T22:28:58.278Z,20.40
2023-05-07T22:33:01.101Z,20.25
2023-05-07T22:37:01.464Z,20.11
2023-05-07T22:41:02.645Z,20.08
2023-05-07T22:45:03.175Z,19.83
2023-05-07T22:49:06.467Z,19.58
2023-05-07T22:53:06.861Z,19.46
2023-05-07T22:57:07.240Z,19.10
2023-05-07T23:01:14.664Z,19.26
2023-05-07T23:05:17.646Z,19.05
2023-05-07T23:09:18.159Z,19.02
2023-05-07T23:13:19.689Z,19.06
2023-05-07T23:17:20.292Z,18.90
2023-05-07T23:21:23.428Z,18.91
2023-05-07T23:25:24.023Z,18.99
2023-05-07T23:29:24.284Z,18.87
2023-05-07T23:33:24.571Z,18.79
2023-05-07T23:37:28.204Z,18.92
2023-05-07T23:41:28.400Z,18.80
2023-05-07T23:45:28.684Z,18.64
2023-05-07T23:49:29.030Z,18.80
2023-05-07T23:53:32.307Z,18.61
2023-05-07T23:57:32.845Z,18.70
